sensor_id;sensor_type;location;lat;lon;timestamp;temperature;humidity
21612;DHT22;47005;52.292;13.452;2023-06-14T00:01:41;17.40;70.40
21612;DHT22;47005;52.292;13.452;2023-06-14T00:04:11;17.40;71.40
21612;DHT22;47005;52.292;13.452;2023-06-14T00:06:37;17.30;72.50
21612;DHT22;47005;52.292;13.452;2023-06-14T00:09:04;17.30;71.30
21612;DHT22;47005;52.292;13.452;2023-06-14T00:11:31;17.30;71.30
21612;DHT22;47005;52.292;13.452;2023-06-14T00:13:57;17.20;72.40
21612;DHT22;47005;52.292;13.452;2023-06-14T00:16:25;17.20;73.20
21612;DHT22;47005;52.292;13.452;2023-06-14T00:18:51;17.20;72.90
21612;DHT22;47005;52.292;13.452;2023-06-14T00:21:19;17.20;74.00
21612;DHT22;47005;52.292;13.452;2023-06-14T00:23:45;17.10;72.70
21612;DHT22;47005;52.292;13.452;2023-06-14T00:26:11;17.10;72.80
21612;DHT22;47005;52.292;13.452;2023-06-14T00:28:36;17.10;71.60
21612;DHT22;47005;52.292;13.452;2023-06-14T00:31:02;17.10;71.60
21612;DHT22;47005;52.292;13.452;2023-06-14T00:33:28;17.10;72.00
21612;DHT22;47005;52.292;13.452;2023-06-14T00:35:53;17.00;71.60
21612;DHT22;47005;52.292;13.452;2023-06-14T00:38:20;17.00;71.60
21612;DHT22;47005;52.292;13.452;2023-06-14T00:40:46;17.00;72.00
21612;DHT22;47005;52.292;13.452;2023-06-14T00:43:12;17.00;72.90
21612;DHT22;47005;52.292;13.452;2023-06-14T00:45:38;16.90;72.60
21612;DHT22;47005;52.292;13.452;2023-06-14T00:48:04;16.90;72.80
21612;DHT22;47005;52.292;13.452;2023-06-14T00:50:31;16.90;73.00
21612;DHT22;47005;52.292;13.452;2023-06-14T00:52:59;16.90;73.00
21612;DHT22;47005;52.292;13.452;2023-06-14T00:55:25;16.80;72.20
21612;DHT22;47005;52.292;13.452;2023-06-14T00:57:51;16.80;72.10
21612;DHT22;47005;52.292;13.452;2023-06-14T01:00:16;16.80;72.80
21612;DHT22;47005;52.292;13.452;2023-06-14T01:02:42;16.80;72.30
21612;DHT22;47005;52.292;13.452;2023-06-14T01:05:08;16.70;72.30
21612;DHT22;47005;52.292;13.452;2023-06-14T01:07:56;16.70;73.10
21612;DHT22;47005;52.292;13.452;2023-06-14T01:10:35;16.70;73.00
21612;DHT22;47005;52.292;13.452;2023-06-14T01:13:19;16.70;74.30
21612;DHT22;47005;52.292;13.452;2023-06-14T01:15:47;16.60;73.40
21612;DHT22;47005;52.292;13.452;2023-06-14T01:18:12;16.60;73.30
21612;DHT22;47005;52.292;13.452;2023-06-14T01:20:45;16.60;74.10
21612;DHT22;47005;52.292;13.452;2023-06-14T01:23:18;16.50;74.00
21612;DHT22;47005;52.292;13.452;2023-06-14T01:25:44;16.50;73.20
21612;DHT22;47005;52.292;13.452;2023-06-14T01:28:10;16.50;73.70
21612;DHT22;47005;52.292;13.452;2023-06-14T01:30:39;16.50;74.00
21612;DHT22;47005;52.292;13.452;2023-06-14T01:33:14;16.40;74.00
21612;DHT22;47005;52.292;13.452;2023-06-14T01:35:45;16.40;75.40
21612;DHT22;47005;52.292;13.452;2023-06-14T01:38:12;16.40;75.00
21612;DHT22;47005;52.292;13.452;2023-06-14T01:40:39;16.40;76.50
21612;DHT22;47005;52.292;13.452;2023-06-14T01:43:05;16.40;76.70
21612;DHT22;47005;52.292;13.452;2023-06-14T01:45:33;16.40;76.40
21612;DHT22;47005;52.292;13.452;2023-06-14T01:47:59;16.30;76.60
21612;DHT22;47005;52.292;13.452;2023-06-14T01:50:29;16.30;77.20
21612;DHT22;47005;52.292;13.452;2023-06-14T01:52:55;16.30;75.80
21612;DHT22;47005;52.292;13.452;2023-06-14T01:55:21;16.30;76.40
21612;DHT22;47005;52.292;13.452;2023-06-14T01:57:47;16.20;75.70
21612;DHT22;47005;52.292;13.452;2023-06-14T02:00:14;16.20;75.80
21612;DHT22;47005;52.292;13.452;2023-06-14T02:02:40;16.20;76.00
21612;DHT22;47005;52.292;13.452;2023-06-14T02:05:06;16.20;75.90
21612;DHT22;47005;52.292;13.452;2023-06-14T02:07:33;16.10;76.00
21612;DHT22;47005;52.292;13.452;2023-06-14T02:09:59;16.10;77.00
21612;DHT22;47005;52.292;13.452;2023-06-14T02:12:24;16.10;76.20
21612;DHT22;47005;52.292;13.452;2023-06-14T02:14:51;16.20;76.40
21612;DHT22;47005;52.292;13.452;2023-06-14T02:17:16;16.10;76.30
21612;DHT22;47005;52.292;13.452;2023-06-14T02:19:42;16.00;76.50
21612;DHT22;47005;52.292;13.452;2023-06-14T02:22:08;16.00;77.00
21612;DHT22;47005;52.292;13.452;2023-06-14T02:24:34;16.00;77.30
21612;DHT22;47005;52.292;13.452;2023-06-14T02:27:01;16.00;77.90
21612;DHT22;47005;52.292;13.452;2023-06-14T02:29:27;15.90;77.80
21612;DHT22;47005;52.292;13.452;2023-06-14T02:31:52;15.90;77.80
21612;DHT22;47005;52.292;13.452;2023-06-14T02:34:18;15.90;78.10
21612;DHT22;47005;52.292;13.452;2023-06-14T02:36:45;15.80;78.40
21612;DHT22;47005;52.292;13.452;2023-06-14T02:39:11;15.80;78.60
21612;DHT22;47005;52.292;13.452;2023-06-14T02:41:37;15.80;78.70
21612;DHT22;47005;52.292;13.452;2023-06-14T02:44:03;15.70;78.50
21612;DHT22;47005;52.292;13.452;2023-06-14T02:46:29;15.70;78.50
21612;DHT22;47005;52.292;13.452;2023-06-14T02:48:55;15.70;78.70
21612;DHT22;47005;52.292;13.452;2023-06-14T02:51:20;15.70;78.60
21612;DHT22;47005;52.292;13.452;2023-06-14T02:53:46;15.70;78.90
21612;DHT22;47005;52.292;13.452;2023-06-14T02:56:11;15.60;78.20
21612;DHT22;47005;52.292;13.452;2023-06-14T02:58:37;15.60;79.00
21612;DHT22;47005;52.292;13.452;2023-06-14T03:01:04;15.60;79.90
21612;DHT22;47005;52.292;13.452;2023-06-14T03:03:31;15.60;80.00
21612;DHT22;47005;52.292;13.452;2023-06-14T03:05:58;15.60;79.80
21612;DHT22;47005;52.292;13.452;2023-06-14T03:08:30;15.50;79.40
21612;DHT22;47005;52.292;13.452;2023-06-14T03:10:57;15.50;79.50
21612;DHT22;47005;52.292;13.452;2023-06-14T03:13:23;15.50;79.10
21612;DHT22;47005;52.292;13.452;2023-06-14T03:15:49;15.50;79.30
21612;DHT22;47005;52.292;13.452;2023-06-14T03:18:17;15.50;79.30
21612;DHT22;47005;52.292;13.452;2023-06-14T03:20:43;15.50;79.70
21612;DHT22;47005;52.292;13.452;2023-06-14T03:23:11;15.50;79.50
21612;DHT22;47005;52.292;13.452;2023-06-14T03:25:37;15.50;79.70
21612;DHT22;47005;52.292;13.452;2023-06-14T03:28:04;15.50;80.00
21612;DHT22;47005;52.292;13.452;2023-06-14T03:30:31;15.50;80.00
21612;DHT22;47005;52.292;13.452;2023-06-14T03:32:57;15.40;80.10
21612;DHT22;47005;52.292;13.452;2023-06-14T03:35:23;15.40;80.10
21612;DHT22;47005;52.292;13.452;2023-06-14T03:37:49;15.40;80.70
21612;DHT22;47005;52.292;13.452;2023-06-14T03:40:18;15.40;80.30
21612;DHT22;47005;52.292;13.452;2023-06-14T03:42:44;15.40;82.40
21612;DHT22;47005;52.292;13.452;2023-06-14T03:45:09;15.40;81.00
21612;DHT22;47005;52.292;13.452;2023-06-14T03:47:36;15.40;80.90
21612;DHT22;47005;52.292;13.452;2023-06-14T03:50:03;15.40;81.80
21612;DHT22;47005;52.292;13.452;2023-06-14T03:52:29;15.40;82.30
21612;DHT22;47005;52.292;13.452;2023-06-14T03:54:55;15.50;82.40
21612;DHT22;47005;52.292;13.452;2023-06-14T03:57:21;15.50;82.20
21612;DHT22;47005;52.292;13.452;2023-06-14T03:59:47;15.50;82.60
21612;DHT22;47005;52.292;13.452;2023-06-14T04:02:13;15.50;81.70
21612;DHT22;47005;52.292;13.452;2023-06-14T04:04:41;15.40;81.60
21612;DHT22;47005;52.292;13.452;2023-06-14T04:07:12;15.50;81.70
21612;DHT22;47005;52.292;13.452;2023-06-14T04:09:39;15.50;83.90
21612;DHT22;47005;52.292;13.452;2023-06-14T04:12:05;15.50;83.10
21612;DHT22;47005;52.292;13.452;2023-06-14T04:14:31;15.50;82.80
21612;DHT22;47005;52.292;13.452;2023-06-14T04:16:58;15.50;84.00
21612;DHT22;47005;52.292;13.452;2023-06-14T04:19:24;15.60;83.60
21612;DHT22;47005;52.292;13.452;2023-06-14T04:21:50;15.60;84.10
21612;DHT22;47005;52.292;13.452;2023-06-14T04:24:16;15.50;84.70
21612;DHT22;47005;52.292;13.452;2023-06-14T04:26:45;15.60;83.30
21612;DHT22;47005;52.292;13.452;2023-06-14T04:29:11;15.50;83.90
21612;DHT22;47005;52.292;13.452;2023-06-14T04:31:42;15.50;83.10
21612;DHT22;47005;52.292;13.452;2023-06-14T04:34:08;15.60;84.20
21612;DHT22;47005;52.292;13.452;2023-06-14T04:36:34;15.50;82.90
21612;DHT22;47005;52.292;13.452;2023-06-14T04:39:03;15.50;82.70
21612;DHT22;47005;52.292;13.452;2023-06-14T04:41:30;15.60;83.30
21612;DHT22;47005;52.292;13.452;2023-06-14T04:43:57;15.60;84.40
21612;DHT22;47005;52.292;13.452;2023-06-14T04:46:27;15.60;86.00
21612;DHT22;47005;52.292;13.452;2023-06-14T04:48:54;15.60;85.90
21612;DHT22;47005;52.292;13.452;2023-06-14T04:51:20;15.60;84.80
21612;DHT22;47005;52.292;13.452;2023-06-14T04:53:56;15.60;86.20
21612;DHT22;47005;52.292;13.452;2023-06-14T04:56:24;15.60;87.60
21612;DHT22;47005;52.292;13.452;2023-06-14T04:58:51;15.60;86.70
21612;DHT22;47005;52.292;13.452;2023-06-14T05:01:18;15.60;86.90
21612;DHT22;47005;52.292;13.452;2023-06-14T05:03:44;15.60;87.10
21612;DHT22;47005;52.292;13.452;2023-06-14T05:06:11;15.60;86.90
21612;DHT22;47005;52.292;13.452;2023-06-14T05:08:37;15.60;86.30
21612;DHT22;47005;52.292;13.452;2023-06-14T05:11:03;15.70;85.60
21612;DHT22;47005;52.292;13.452;2023-06-14T05:13:28;15.70;86.20
21612;DHT22;47005;52.292;13.452;2023-06-14T05:15:54;15.70;85.20
21612;DHT22;47005;52.292;13.452;2023-06-14T05:18:20;15.70;84.50
21612;DHT22;47005;52.292;13.452;2023-06-14T05:20:45;15.80;84.40
21612;DHT22;47005;52.292;13.452;2023-06-14T05:23:11;15.80;84.60
21612;DHT22;47005;52.292;13.452;2023-06-14T05:25:42;15.80;84.30
21612;DHT22;47005;52.292;13.452;2023-06-14T05:28:09;15.80;83.00
21612;DHT22;47005;52.292;13.452;2023-06-14T05:30:35;15.80;83.10
21612;DHT22;47005;52.292;13.452;2023-06-14T05:33:01;15.90;82.90
21612;DHT22;47005;52.292;13.452;2023-06-14T05:35:26;15.90;83.90
21612;DHT22;47005;52.292;13.452;2023-06-14T05:37:52;15.90;84.40
21612;DHT22;47005;52.292;13.452;2023-06-14T05:40:19;16.00;83.70
21612;DHT22;47005;52.292;13.452;2023-06-14T05:42:45;16.00;83.60
21612;DHT22;47005;52.292;13.452;2023-06-14T05:45:11;16.00;84.30
21612;DHT22;47005;52.292;13.452;2023-06-14T05:47:37;16.00;83.40
21612;DHT22;47005;52.292;13.452;2023-06-14T05:50:03;16.10;83.30
21612;DHT22;47005;52.292;13.452;2023-06-14T05:52:28;16.10;83.50
21612;DHT22;47005;52.292;13.452;2023-06-14T05:54:55;16.10;83.60
21612;DHT22;47005;52.292;13.452;2023-06-14T05:57:20;16.20;84.70
21612;DHT22;47005;52.292;13.452;2023-06-14T05:59:46;16.20;83.80
21612;DHT22;47005;52.292;13.452;2023-06-14T06:02:12;16.20;83.60
21612;DHT22;47005;52.292;13.452;2023-06-14T06:04:37;16.30;83.70
21612;DHT22;47005;52.292;13.452;2023-06-14T06:07:03;16.30;85.00
21612;DHT22;47005;52.292;13.452;2023-06-14T06:09:30;16.30;84.20
21612;DHT22;47005;52.292;13.452;2023-06-14T06:11:56;16.40;84.50
21612;DHT22;47005;52.292;13.452;2023-06-14T06:14:22;16.40;84.50
21612;DHT22;47005;52.292;13.452;2023-06-14T06:16:47;16.40;84.70
21612;DHT22;47005;52.292;13.452;2023-06-14T06:19:13;16.40;84.20
21612;DHT22;47005;52.292;13.452;2023-06-14T06:21:39;16.50;85.40
21612;DHT22;47005;52.292;13.452;2023-06-14T06:24:05;16.50;85.50
21612;DHT22;47005;52.292;13.452;2023-06-14T06:26:31;16.50;85.30
21612;DHT22;47005;52.292;13.452;2023-06-14T06:28:58;16.50;86.20
21612;DHT22;47005;52.292;13.452;2023-06-14T06:31:23;16.60;84.70
21612;DHT22;47005;52.292;13.452;2023-06-14T06:33:50;16.60;85.70
21612;DHT22;47005;52.292;13.452;2023-06-14T06:36:16;16.60;85.10
21612;DHT22;47005;52.292;13.452;2023-06-14T06:38:42;16.60;84.70
21612;DHT22;47005;52.292;13.452;2023-06-14T06:41:07;16.60;86.30
21612;DHT22;47005;52.292;13.452;2023-06-14T06:43:33;16.60;84.80
21612;DHT22;47005;52.292;13.452;2023-06-14T06:45:58;16.60;84.70
21612;DHT22;47005;52.292;13.452;2023-06-14T06:48:24;16.70;84.60
21612;DHT22;47005;52.292;13.452;2023-06-14T06:50:50;16.70;84.90
21612;DHT22;47005;52.292;13.452;2023-06-14T06:53:16;16.70;85.30
21612;DHT22;47005;52.292;13.452;2023-06-14T06:55:44;16.70;85.50
21612;DHT22;47005;52.292;13.452;2023-06-14T06:58:10;16.70;86.40
21612;DHT22;47005;52.292;13.452;2023-06-14T07:00:36;16.70;86.10
21612;DHT22;47005;52.292;13.452;2023-06-14T07:03:01;16.70;86.00
21612;DHT22;47005;52.292;13.452;2023-06-14T07:05:29;16.80;86.00
21612;DHT22;47005;52.292;13.452;2023-06-14T07:07:56;16.80;86.00
21612;DHT22;47005;52.292;13.452;2023-06-14T07:10:21;16.90;86.00
21612;DHT22;47005;52.292;13.452;2023-06-14T07:12:47;16.90;86.50
21612;DHT22;47005;52.292;13.452;2023-06-14T07:15:13;17.00;86.20
21612;DHT22;47005;52.292;13.452;2023-06-14T07:17:39;17.00;86.00
21612;DHT22;47005;52.292;13.452;2023-06-14T07:20:06;17.10;85.80
21612;DHT22;47005;52.292;13.452;2023-06-14T07:22:42;17.10;85.80
21612;DHT22;47005;52.292;13.452;2023-06-14T07:25:11;17.20;85.30
21612;DHT22;47005;52.292;13.452;2023-06-14T07:27:41;17.20;85.00
21612;DHT22;47005;52.292;13.452;2023-06-14T07:30:08;17.30;85.10
21612;DHT22;47005;52.292;13.452;2023-06-14T07:32:34;17.30;84.80
21612;DHT22;47005;52.292;13.452;2023-06-14T07:35:00;17.30;84.70
21612;DHT22;47005;52.292;13.452;2023-06-14T07:37:25;17.30;84.40
21612;DHT22;47005;52.292;13.452;2023-06-14T07:39:51;17.40;84.40
21612;DHT22;47005;52.292;13.452;2023-06-14T07:42:16;17.40;84.10
21612;DHT22;47005;52.292;13.452;2023-06-14T07:44:42;17.40;84.30
21612;DHT22;47005;52.292;13.452;2023-06-14T07:47:08;17.40;83.90
21612;DHT22;47005;52.292;13.452;2023-06-14T07:49:33;17.40;83.70
21612;DHT22;47005;52.292;13.452;2023-06-14T07:51:59;17.50;83.70
21612;DHT22;47005;52.292;13.452;2023-06-14T07:54:25;17.50;84.00
21612;DHT22;47005;52.292;13.452;2023-06-14T07:56:52;17.50;83.80
21612;DHT22;47005;52.292;13.452;2023-06-14T07:59:18;17.50;83.80
21612;DHT22;47005;52.292;13.452;2023-06-14T08:01:43;17.50;83.90
21612;DHT22;47005;52.292;13.452;2023-06-14T08:04:16;17.50;84.20
21612;DHT22;47005;52.292;13.452;2023-06-14T08:06:42;17.60;84.30
21612;DHT22;47005;52.292;13.452;2023-06-14T08:09:12;17.60;84.10
21612;DHT22;47005;52.292;13.452;2023-06-14T08:11:38;17.60;84.20
21612;DHT22;47005;52.292;13.452;2023-06-14T08:14:04;17.60;84.20
21612;DHT22;47005;52.292;13.452;2023-06-14T08:16:29;17.70;84.60
21612;DHT22;47005;52.292;13.452;2023-06-14T08:18:55;17.70;84.30
21612;DHT22;47005;52.292;13.452;2023-06-14T08:21:21;17.70;84.20
21612;DHT22;47005;52.292;13.452;2023-06-14T08:23:47;17.80;84.20
21612;DHT22;47005;52.292;13.452;2023-06-14T08:26:12;17.80;83.60
21612;DHT22;47005;52.292;13.452;2023-06-14T08:28:38;17.80;84.10
21612;DHT22;47005;52.292;13.452;2023-06-14T08:31:04;17.90;84.30
21612;DHT22;47005;52.292;13.452;2023-06-14T08:33:30;17.90;83.90
21612;DHT22;47005;52.292;13.452;2023-06-14T08:35:59;18.00;83.70
21612;DHT22;47005;52.292;13.452;2023-06-14T08:38:25;18.00;83.30
21612;DHT22;47005;52.292;13.452;2023-06-14T08:40:51;18.00;83.20
21612;DHT22;47005;52.292;13.452;2023-06-14T08:43:18;18.10;83.10
21612;DHT22;47005;52.292;13.452;2023-06-14T08:45:46;18.10;82.90
21612;DHT22;47005;52.292;13.452;2023-06-14T08:48:17;18.10;82.80
21612;DHT22;47005;52.292;13.452;2023-06-14T08:50:46;18.20;83.40
21612;DHT22;47005;52.292;13.452;2023-06-14T08:53:14;18.20;83.00
21612;DHT22;47005;52.292;13.452;2023-06-14T08:58:13;18.30;81.40
21612;DHT22;47005;52.292;13.452;2023-06-14T09:00:40;18.40;82.30
21612;DHT22;47005;52.292;13.452;2023-06-14T09:03:07;18.40;81.10
21612;DHT22;47005;52.292;13.452;2023-06-14T09:05:38;18.40;80.10
21612;DHT22;47005;52.292;13.452;2023-06-14T09:08:04;18.50;80.90
21612;DHT22;47005;52.292;13.452;2023-06-14T09:10:31;18.50;80.70
21612;DHT22;47005;52.292;13.452;2023-06-14T09:13:03;18.50;80.90
21612;DHT22;47005;52.292;13.452;2023-06-14T09:15:30;18.50;80.30
21612;DHT22;47005;52.292;13.452;2023-06-14T09:17:55;18.50;80.40
21612;DHT22;47005;52.292;13.452;2023-06-14T09:20:21;18.60;80.50
21612;DHT22;47005;52.292;13.452;2023-06-14T09:22:49;18.60;80.20
21612;DHT22;47005;52.292;13.452;2023-06-14T09:25:15;18.60;80.30
21612;DHT22;47005;52.292;13.452;2023-06-14T09:27:41;18.70;79.80
21612;DHT22;47005;52.292;13.452;2023-06-14T09:30:09;18.70;79.60
21612;DHT22;47005;52.292;13.452;2023-06-14T09:32:39;18.80;79.20
21612;DHT22;47005;52.292;13.452;2023-06-14T09:35:06;18.80;79.30
21612;DHT22;47005;52.292;13.452;2023-06-14T09:37:33;18.90;78.90
21612;DHT22;47005;52.292;13.452;2023-06-14T09:39:59;18.90;78.70
21612;DHT22;47005;52.292;13.452;2023-06-14T09:42:25;19.00;78.80
21612;DHT22;47005;52.292;13.452;2023-06-14T09:44:52;19.00;79.10
21612;DHT22;47005;52.292;13.452;2023-06-14T09:47:19;19.10;79.00
21612;DHT22;47005;52.292;13.452;2023-06-14T09:49:45;19.20;78.10
21612;DHT22;47005;52.292;13.452;2023-06-14T09:52:14;19.20;78.10
21612;DHT22;47005;52.292;13.452;2023-06-14T09:54:42;19.30;78.00
21612;DHT22;47005;52.292;13.452;2023-06-14T09:57:10;19.30;77.50
21612;DHT22;47005;52.292;13.452;2023-06-14T09:59:46;19.40;78.00
21612;DHT22;47005;52.292;13.452;2023-06-14T10:02:28;19.50;77.10
21612;DHT22;47005;52.292;13.452;2023-06-14T10:05:15;19.50;76.60
21612;DHT22;47005;52.292;13.452;2023-06-14T10:08:00;19.60;76.50
21612;DHT22;47005;52.292;13.452;2023-06-14T10:10:27;19.70;76.10
21612;DHT22;47005;52.292;13.452;2023-06-14T10:12:53;19.70;75.90
21612;DHT22;47005;52.292;13.452;2023-06-14T10:21:22;19.80;75.80
21612;DHT22;47005;52.292;13.452;2023-06-14T10:23:50;19.80;75.80
21612;DHT22;47005;52.292;13.452;2023-06-14T10:26:20;19.80;75.00
21612;DHT22;47005;52.292;13.452;2023-06-14T10:28:59;19.80;73.70
21612;DHT22;47005;52.292;13.452;2023-06-14T10:31:49;19.90;74.70
21612;DHT22;47005;52.292;13.452;2023-06-14T10:34:29;19.90;74.10
21612;DHT22;47005;52.292;13.452;2023-06-14T10:37:11;19.90;73.60
21612;DHT22;47005;52.292;13.452;2023-06-14T10:39:46;20.00;73.90
21612;DHT22;47005;52.292;13.452;2023-06-14T10:42:13;20.00;73.30
21612;DHT22;47005;52.292;13.452;2023-06-14T10:44:42;20.00;72.90
21612;DHT22;47005;52.292;13.452;2023-06-14T10:47:24;20.10;73.20
21612;DHT22;47005;52.292;13.452;2023-06-14T10:50:10;20.10;73.90
21612;DHT22;47005;52.292;13.452;2023-06-14T10:52:41;20.10;72.90
21612;DHT22;47005;52.292;13.452;2023-06-14T10:55:09;20.10;73.10
21612;DHT22;47005;52.292;13.452;2023-06-14T10:57:41;20.10;72.80
21612;DHT22;47005;52.292;13.452;2023-06-14T11:00:08;20.10;72.30
21612;DHT22;47005;52.292;13.452;2023-06-14T11:05:52;20.20;72.20
21612;DHT22;47005;52.292;13.452;2023-06-14T11:11:05;20.20;72.40
21612;DHT22;47005;52.292;13.452;2023-06-14T11:13:31;20.20;71.90
21612;DHT22;47005;52.292;13.452;2023-06-14T11:15:57;20.30;72.20
21612;DHT22;47005;52.292;13.452;2023-06-14T11:18:23;20.30;72.40
21612;DHT22;47005;52.292;13.452;2023-06-14T11:20:50;20.30;71.80
21612;DHT22;47005;52.292;13.452;2023-06-14T11:23:16;20.30;71.90
21612;DHT22;47005;52.292;13.452;2023-06-14T11:25:42;20.30;72.10
21612;DHT22;47005;52.292;13.452;2023-06-14T11:28:07;20.40;71.90
21612;DHT22;47005;52.292;13.452;2023-06-14T11:30:33;20.40;71.90
21612;DHT22;47005;52.292;13.452;2023-06-14T11:32:59;20.40;71.90
21612;DHT22;47005;52.292;13.452;2023-06-14T11:35:25;20.40;72.00
21612;DHT22;47005;52.292;13.452;2023-06-14T11:37:55;20.40;71.60
21612;DHT22;47005;52.292;13.452;2023-06-14T11:40:24;20.40;72.00
21612;DHT22;47005;52.292;13.452;2023-06-14T11:42:51;20.50;71.40
21612;DHT22;47005;52.292;13.452;2023-06-14T11:45:23;20.50;71.80
21612;DHT22;47005;52.292;13.452;2023-06-14T11:47:48;20.50;72.00
21612;DHT22;47005;52.292;13.452;2023-06-14T11:50:14;20.50;70.40
21612;DHT22;47005;52.292;13.452;2023-06-14T11:52:39;20.50;70.90
21612;DHT22;47005;52.292;13.452;2023-06-14T11:55:06;20.60;71.10
21612;DHT22;47005;52.292;13.452;2023-06-14T11:57:35;20.60;71.60
21612;DHT22;47005;52.292;13.452;2023-06-14T12:00:06;20.70;70.50
21612;DHT22;47005;52.292;13.452;2023-06-14T12:02:38;20.80;70.70
21612;DHT22;47005;52.292;13.452;2023-06-14T12:05:06;20.90;69.40
21612;DHT22;47005;52.292;13.452;2023-06-14T12:07:38;20.90;70.10
21612;DHT22;47005;52.292;13.452;2023-06-14T12:10:08;21.00;69.30
21612;DHT22;47005;52.292;13.452;2023-06-14T12:12:36;21.10;68.40
21612;DHT22;47005;52.292;13.452;2023-06-14T12:15:04;21.10;69.40
21612;DHT22;47005;52.292;13.452;2023-06-14T12:17:34;21.10;68.80
21612;DHT22;47005;52.292;13.452;2023-06-14T12:20:08;21.20;69.10
21612;DHT22;47005;52.292;13.452;2023-06-14T12:22:37;21.20;68.30
21612;DHT22;47005;52.292;13.452;2023-06-14T12:25:04;21.30;68.60
21612;DHT22;47005;52.292;13.452;2023-06-14T12:27:30;21.40;68.00
21612;DHT22;47005;52.292;13.452;2023-06-14T12:30:03;21.50;67.90
21612;DHT22;47005;52.292;13.452;2023-06-14T12:32:30;21.80;68.30
21612;DHT22;47005;52.292;13.452;2023-06-14T12:34:55;21.90;66.30
21612;DHT22;47005;52.292;13.452;2023-06-14T12:37:21;22.10;65.60
21612;DHT22;47005;52.292;13.452;2023-06-14T12:39:47;22.20;66.00
21612;DHT22;47005;52.292;13.452;2023-06-14T12:42:13;22.30;65.60
21612;DHT22;47005;52.292;13.452;2023-06-14T12:44:40;22.30;65.70
21612;DHT22;47005;52.292;13.452;2023-06-14T12:47:07;22.30;65.40
21612;DHT22;47005;52.292;13.452;2023-06-14T12:49:33;22.30;65.00
21612;DHT22;47005;52.292;13.452;2023-06-14T12:51:58;22.30;64.70
21612;DHT22;47005;52.292;13.452;2023-06-14T12:54:24;22.20;64.60
21612;DHT22;47005;52.292;13.452;2023-06-14T12:56:51;22.10;65.00
21612;DHT22;47005;52.292;13.452;2023-06-14T12:59:17;22.10;64.90
21612;DHT22;47005;52.292;13.452;2023-06-14T13:01:43;22.00;64.10
21612;DHT22;47005;52.292;13.452;2023-06-14T13:04:10;22.00;65.00
21612;DHT22;47005;52.292;13.452;2023-06-14T13:06:36;21.90;65.20
21612;DHT22;47005;52.292;13.452;2023-06-14T13:09:02;21.90;65.00
21612;DHT22;47005;52.292;13.452;2023-06-14T13:11:29;21.90;65.00
21612;DHT22;47005;52.292;13.452;2023-06-14T13:13:55;22.00;64.60
21612;DHT22;47005;52.292;13.452;2023-06-14T13:16:21;22.00;64.60
21612;DHT22;47005;52.292;13.452;2023-06-14T13:18:47;22.00;63.60
21612;DHT22;47005;52.292;13.452;2023-06-14T13:21:12;22.10;63.70
21612;DHT22;47005;52.292;13.452;2023-06-14T13:23:38;22.10;64.50
21612;DHT22;47005;52.292;13.452;2023-06-14T13:26:04;22.20;64.80
21612;DHT22;47005;52.292;13.452;2023-06-14T13:28:29;22.20;63.90
21612;DHT22;47005;52.292;13.452;2023-06-14T13:30:56;22.30;63.90
21612;DHT22;47005;52.292;13.452;2023-06-14T13:33:22;22.30;63.40
21612;DHT22;47005;52.292;13.452;2023-06-14T13:35:49;22.40;63.30
21612;DHT22;47005;52.292;13.452;2023-06-14T13:38:18;22.40;63.70
21612;DHT22;47005;52.292;13.452;2023-06-14T13:40:43;22.40;62.80
21612;DHT22;47005;52.292;13.452;2023-06-14T13:43:09;22.40;63.20
21612;DHT22;47005;52.292;13.452;2023-06-14T13:45:35;22.40;61.30
21612;DHT22;47005;52.292;13.452;2023-06-14T13:48:01;22.40;62.10
21612;DHT22;47005;52.292;13.452;2023-06-14T13:50:27;22.40;62.50
21612;DHT22;47005;52.292;13.452;2023-06-14T13:52:53;22.40;63.30
21612;DHT22;47005;52.292;13.452;2023-06-14T13:55:18;22.40;63.10
21612;DHT22;47005;52.292;13.452;2023-06-14T13:57:44;22.40;62.40
21612;DHT22;47005;52.292;13.452;2023-06-14T14:00:11;22.40;62.50
21612;DHT22;47005;52.292;13.452;2023-06-14T14:02:37;22.40;62.00
21612;DHT22;47005;52.292;13.452;2023-06-14T14:05:03;22.40;61.70
21612;DHT22;47005;52.292;13.452;2023-06-14T14:07:28;22.40;60.50
21612;DHT22;47005;52.292;13.452;2023-06-14T14:09:55;22.40;60.40
21612;DHT22;47005;52.292;13.452;2023-06-14T14:12:23;22.40;61.70
21612;DHT22;47005;52.292;13.452;2023-06-14T14:14:48;22.40;60.50
21612;DHT22;47005;52.292;13.452;2023-06-14T14:17:14;22.40;60.90
21612;DHT22;47005;52.292;13.452;2023-06-14T14:19:40;22.50;60.60
21612;DHT22;47005;52.292;13.452;2023-06-14T14:22:05;22.50;60.30
21612;DHT22;47005;52.292;13.452;2023-06-14T14:24:31;22.50;59.90
21612;DHT22;47005;52.292;13.452;2023-06-14T14:26:57;22.50;58.50
21612;DHT22;47005;52.292;13.452;2023-06-14T14:29:25;22.40;58.20
21612;DHT22;47005;52.292;13.452;2023-06-14T14:31:55;22.40;57.10
21612;DHT22;47005;52.292;13.452;2023-06-14T14:34:22;22.50;58.50
21612;DHT22;47005;52.292;13.452;2023-06-14T14:36:47;22.50;58.80
21612;DHT22;47005;52.292;13.452;2023-06-14T14:39:13;22.40;58.50
21612;DHT22;47005;52.292;13.452;2023-06-14T14:41:39;22.50;58.10
21612;DHT22;47005;52.292;13.452;2023-06-14T14:44:05;22.50;58.20
21612;DHT22;47005;52.292;13.452;2023-06-14T14:46:31;22.50;58.40
21612;DHT22;47005;52.292;13.452;2023-06-14T14:48:58;22.50;58.30
21612;DHT22;47005;52.292;13.452;2023-06-14T14:51:23;22.50;57.50
21612;DHT22;47005;52.292;13.452;2023-06-14T14:53:49;22.60;57.30
21612;DHT22;47005;52.292;13.452;2023-06-14T14:56:15;22.60;57.30
21612;DHT22;47005;52.292;13.452;2023-06-14T14:58:40;22.60;57.10
21612;DHT22;47005;52.292;13.452;2023-06-14T15:01:06;22.60;57.70
21612;DHT22;47005;52.292;13.452;2023-06-14T15:03:32;22.60;56.40
21612;DHT22;47005;52.292;13.452;2023-06-14T15:05:58;22.70;56.50
21612;DHT22;47005;52.292;13.452;2023-06-14T15:08:23;22.60;57.40
21612;DHT22;47005;52.292;13.452;2023-06-14T15:10:49;22.70;57.00
21612;DHT22;47005;52.292;13.452;2023-06-14T15:13:15;22.70;57.90
21612;DHT22;47005;52.292;13.452;2023-06-14T15:15:40;22.70;57.50
21612;DHT22;47005;52.292;13.452;2023-06-14T15:18:06;22.70;57.30
21612;DHT22;47005;52.292;13.452;2023-06-14T15:20:32;22.70;57.50
21612;DHT22;47005;52.292;13.452;2023-06-14T15:22:57;22.70;57.70
21612;DHT22;47005;52.292;13.452;2023-06-14T15:25:28;22.70;57.80
21612;DHT22;47005;52.292;13.452;2023-06-14T15:27:55;22.70;57.60
21612;DHT22;47005;52.292;13.452;2023-06-14T15:30:21;22.80;57.30